createdAt,value
2023-02-15T00:01:03.501Z,101959
2023-02-15T00:11:04.797Z,101958
2023-02-15T00:21:03.589Z,101952
2023-02-15T00:31:03.820Z,101953
2023-02-15T00:41:03.739Z,101958
2023-02-15T00:51:03.887Z,101950
2023-02-15T01:01:04.265Z,101946
2023-02-15T01:11:03.988Z,101948
2023-02-15T01:21:03.999Z,101947
2023-02-15T01:31:04.082Z,101950
2023-02-15T01:41:04.002Z,101943
2023-02-15T01:51:04.287Z,101926
2023-02-15T02:01:04.020Z,101922
2023-02-15T02:11:03.975Z,101920
2023-02-15T02:21:04.005Z,101913
2023-02-15T02:31:04.165Z,101924
2023-02-15T02:41:04.058Z,101927
2023-02-15T02:51:04.062Z,101924
2023-02-15T03:01:04.076Z,101925
2023-02-15T03:11:04.111Z,101926
2023-02-15T03:21:04.118Z,101924
2023-02-15T03:31:04.287Z,101924
2023-02-15T03:41:04.219Z,101932
2023-02-15T03:51:05.254Z,101938
2023-02-15T04:01:04.309Z,101931
2023-02-15T04:11:04.237Z,101934
2023-02-15T04:21:04.251Z,101934
2023-02-15T04:31:04.299Z,101923
2023-02-15T04:41:04.207Z,101939
2023-02-15T04:51:04.164Z,101934
2023-02-15T05:01:04.154Z,101938
2023-02-15T05:11:04.026Z,101936
2023-02-15T05:21:03.945Z,101941
2023-02-15T05:31:04.248Z,101955
2023-02-15T05:41:03.861Z,101965
2023-02-15T05:51:03.781Z,101969
2023-02-15T06:01:03.752Z,101976
2023-02-15T06:11:03.713Z,101980
2023-02-15T06:21:05.010Z,101992
2023-02-15T06:31:03.717Z,101991
2023-02-15T06:41:03.662Z,101997
2023-02-15T06:51:03.572Z,102003
2023-02-15T07:01:03.543Z,101997
2023-02-15T07:11:03.534Z,102001
2023-02-15T07:21:03.606Z,102007
2023-02-15T07:31:03.816Z,102004
2023-02-15T07:41:03.778Z,102001
2023-02-15T07:51:03.910Z,102001
2023-02-15T08:01:04.061Z,101996
2023-02-15T08:11:04.144Z,101987
2023-02-15T08:21:04.395Z,101986
2023-02-15T08:31:04.972Z,101985
2023-02-15T08:41:05.183Z,101974
2023-02-15T08:51:05.755Z,101971
2023-02-15T09:01:06.417Z,101971
2023-02-15T09:11:07.227Z,101961
2023-02-15T09:21:07.831Z,101966
2023-02-15T09:31:08.766Z,101951
2023-02-15T09:41:10.779Z,101943
2023-02-15T09:51:10.502Z,101938
2023-02-15T10:01:11.051Z,101927
2023-02-15T10:11:11.712Z,101924
2023-02-15T10:21:12.368Z,101912
2023-02-15T10:31:13.269Z,101913
2023-02-15T10:41:13.774Z,101906
2023-02-15T10:51:14.485Z,101898
2023-02-15T11:01:15.143Z,101889
2023-02-15T11:11:15.793Z,101871
2023-02-15T11:21:16.468Z,101862
2023-02-15T11:31:17.326Z,101850
2023-02-15T11:41:17.869Z,101834
2023-02-15T11:51:18.530Z,101824
2023-02-15T12:01:19.119Z,101817
2023-02-15T12:11:19.763Z,101803
2023-02-15T12:21:20.346Z,101788
2023-02-15T12:31:21.219Z,101773
2023-02-15T12:41:21.638Z,101766
2023-02-15T12:51:22.229Z,101759
2023-02-15T13:01:23.074Z,101747
2023-02-15T13:11:23.587Z,101729
2023-02-15T13:21:24.217Z,101719
2023-02-15T13:31:25.040Z,101707
2023-02-15T13:41:25.523Z,101703
2023-02-15T13:51:26.204Z,101699
2023-02-15T14:01:26.935Z,101695
2023-02-15T14:11:27.655Z,101687
2023-02-15T14:21:28.342Z,101689
2023-02-15T14:31:29.325Z,101694
2023-02-15T14:41:29.996Z,101693
2023-02-15T14:51:30.991Z,101686
2023-02-15T15:01:31.338Z,101680
2023-02-15T15:11:43.065Z,101666
2023-02-15T15:21:32.699Z,101662
2023-02-15T15:31:33.629Z,101654
2023-02-15T15:41:34.152Z,101659
2023-02-15T16:01:35.459Z,101653
2023-02-15T16:11:36.204Z,101652
2023-02-15T16:21:36.692Z,101661
2023-02-15T16:31:37.436Z,101658
2023-02-15T16:41:38.264Z,101666
2023-02-15T16:51:40.530Z,101663
2023-02-15T17:01:39.264Z,101668
2023-02-15T17:11:39.710Z,101675
2023-02-15T17:21:40.289Z,101675
2023-02-15T17:41:41.208Z,101681
2023-02-15T17:51:41.990Z,101680
2023-02-15T18:01:42.277Z,101680
2023-02-15T18:11:42.805Z,101674
2023-02-15T18:21:43.549Z,101670
2023-02-15T18:31:44.516Z,101671
2023-02-15T18:41:44.382Z,101668
2023-02-15T18:51:44.827Z,101675
2023-02-15T19:01:47.226Z,101670
2023-02-15T19:11:45.467Z,101663
2023-02-15T19:21:47.774Z,101666
2023-02-15T19:31:46.708Z,101666
2023-02-15T19:41:46.974Z,101662
2023-02-15T19:51:47.200Z,101657
2023-02-15T20:01:46.908Z,101663
2023-02-15T20:11:49.596Z,101670
2023-02-15T20:21:47.388Z,101667
2023-02-15T20:31:47.827Z,101653
2023-02-15T20:41:51.684Z,101656
2023-02-15T20:51:51.322Z,101655
2023-02-15T21:01:48.407Z,101649
2023-02-15T21:21:48.642Z,101651
2023-02-15T21:31:50.937Z,101652
2023-02-15T21:41:48.688Z,101642
2023-02-15T21:51:48.825Z,101639
2023-02-15T22:01:49.008Z,101641
2023-02-15T22:11:49.106Z,101648
2023-02-15T22:21:49.234Z,101647
2023-02-15T22:31:49.541Z,101649
2023-02-15T22:41:49.548Z,101649
2023-02-15T22:51:49.717Z,101655
2023-02-15T23:01:50.046Z,101650
2023-02-15T23:11:50.005Z,101649
2023-02-15T23:21:50.072Z,101647
2023-02-15T23:31:50.300Z,101637
2023-02-15T23:41:50.216Z,101631
2023-02-15T23:51:50.303Z,101624
